Time;durP1;ratioP1;P1;durP2;ratioP2;P2;SDS_P1;SDS_P2;PMS_P1;PMS_P2;Temp;Humidity;BMP_temperature;BMP_pressure;BME280_temperature;BME280_humidity;BME280_pressure;Samples;Min_cycle;Max_cycle;Signal;HPM_P1;HPM_P2
2022/03/19 00:01:42;;;;;;;17.13;3.65;;;4.20;99.90;;;;;;4934316;28;20058;-57
2022/03/19 00:04:08;;;;;;;16.73;2.72;;;4.20;99.90;;;;;;4936410;28;20043;-57
2022/03/19 00:06:39;;;;;;;13.25;2.70;;;4.20;99.90;;;;;;4935533;29;20540;-57
2022/03/19 00:09:07;;;;;;;18.25;3.03;;;4.10;99.90;;;;;;4934109;28;20161;-57
2022/03/19 00:11:34;;;;;;;17.42;2.75;;;4.10;99.90;;;;;;4932302;28;20177;-56
2022/03/19 00:14:00;;;;;;;11.30;3.00;;;4.10;99.90;;;;;;4940553;28;20062;-57
2022/03/19 00:16:26;;;;;;;11.82;3.00;;;4.10;99.90;;;;;;4928420;29;20118;-57
2022/03/19 00:18:52;;;;;;;15.55;3.25;;;4.10;99.90;;;;;;4935556;29;20081;-58
2022/03/19 00:21:18;;;;;;;10.88;2.45;;;4.10;99.90;;;;;;4931824;28;20055;-58
2022/03/19 00:23:45;;;;;;;9.57;2.70;;;4.10;99.90;;;;;;4923543;29;20411;-56
2022/03/19 00:26:11;;;;;;;13.60;2.70;;;4.00;99.90;;;;;;4937235;29;20401;-58
2022/03/19 00:28:38;;;;;;;14.82;3.05;;;4.00;99.90;;;;;;4932887;28;20099;-56
2022/03/19 00:31:04;;;;;;;18.77;3.05;;;4.00;99.90;;;;;;4938556;29;20090;-57
2022/03/19 00:33:30;;;;;;;16.65;3.22;;;4.00;99.90;;;;;;4933774;29;20127;-58
2022/03/19 00:35:56;;;;;;;14.23;2.85;;;4.00;99.90;;;;;;4931892;29;20048;-56
2022/03/19 00:38:21;;;;;;;16.35;3.00;;;3.90;99.90;;;;;;4933413;29;20072;-56
2022/03/19 00:40:49;;;;;;;11.13;2.55;;;4.00;99.90;;;;;;4933900;29;20044;-56
2022/03/19 00:43:16;;;;;;;17.50;3.92;;;3.90;99.90;;;;;;4932622;28;20055;-57
2022/03/19 00:45:42;;;;;;;13.30;3.05;;;3.90;99.90;;;;;;4934804;28;20058;-57
2022/03/19 00:48:08;;;;;;;17.75;3.25;;;3.90;99.90;;;;;;4932455;28;20043;-58
2022/03/19 00:50:34;;;;;;;17.92;3.03;;;3.90;99.90;;;;;;4937480;28;20055;-56
2022/03/19 00:53:00;;;;;;;12.98;2.85;;;3.90;99.90;;;;;;4929387;29;20094;-56
2022/03/19 00:55:26;;;;;;;18.88;3.08;;;3.90;99.90;;;;;;4934638;29;20099;-58
2022/03/19 00:57:51;;;;;;;16.55;3.25;;;3.80;99.90;;;;;;4931938;28;20046;-56
2022/03/19 01:00:23;;;;;;;14.07;2.55;;;3.80;99.90;;;;;;4934952;29;20059;-58
2022/03/19 01:02:50;;;;;;;17.30;4.05;;;3.80;99.90;;;;;;4932385;28;20043;-56
2022/03/19 01:05:16;;;;;;;14.68;3.13;;;3.80;99.90;;;;;;4929418;29;20389;-56
2022/03/19 01:07:44;;;;;;;17.92;2.97;;;3.80;99.90;;;;;;4934210;29;20040;-57
2022/03/19 01:10:12;;;;;;;21.73;3.15;;;3.80;99.90;;;;;;4931906;29;20726;-57
2022/03/19 01:12:38;;;;;;;13.82;2.75;;;3.70;99.90;;;;;;4935099;29;20480;-57
2022/03/19 01:15:05;;;;;;;17.30;3.25;;;3.70;99.90;;;;;;4930910;29;20043;-57
2022/03/19 01:17:31;;;;;;;22.73;4.15;;;3.70;99.90;;;;;;4931877;29;20461;-57
2022/03/19 01:19:59;;;;;;;18.75;3.47;;;3.80;99.90;;;;;;4930911;29;20134;-56
2022/03/19 01:22:26;;;;;;;18.10;3.05;;;3.80;99.90;;;;;;4933194;28;20055;-58
2022/03/19 01:24:52;;;;;;;19.15;3.03;;;3.80;99.90;;;;;;4931362;28;20043;-57
2022/03/19 01:27:18;;;;;;;17.70;3.33;;;3.80;99.90;;;;;;4932058;28;20039;-57
2022/03/19 01:29:44;;;;;;;15.20;3.40;;;3.80;99.90;;;;;;4932756;29;20442;-57
2022/03/19 01:32:10;;;;;;;16.40;3.38;;;3.80;99.90;;;;;;4934500;29;20047;-57
2022/03/19 01:34:36;;;;;;;15.85;3.13;;;3.80;99.90;;;;;;4931166;29;20043;-58
2022/03/19 01:37:03;;;;;;;11.10;3.10;;;3.80;99.90;;;;;;4935094;28;20043;-57
2022/03/19 01:39:28;;;;;;;18.88;3.55;;;3.80;99.90;;;;;;4933119;29;20035;-58
2022/03/19 01:41:54;;;;;;;22.30;3.95;;;3.70;99.90;;;;;;4931293;28;20063;-57
2022/03/19 01:44:22;;;;;;;12.57;3.47;;;3.70;99.90;;;;;;4929959;29;20047;-56
2022/03/19 01:47:02;;;;;;;18.02;3.63;;;3.70;99.90;;;;;;4931964;28;20099;-56
2022/03/19 01:49:30;;;;;;;22.35;3.67;;;3.60;99.90;;;;;;4929137;29;20038;-57
2022/03/19 01:51:56;;;;;;;17.95;3.40;;;3.60;99.90;;;;;;4932176;28;20047;-57
2022/03/19 01:54:40;;;;;;;15.98;3.45;;;3.60;99.90;;;;;;4931138;28;20405;-57
2022/03/19 01:57:07;;;;;;;12.00;2.67;;;3.60;99.90;;;;;;4930694;29;20118;-57
2022/03/19 01:59:36;;;;;;;17.17;3.85;;;3.60;99.90;;;;;;4930384;29;20039;-57
2022/03/19 02:02:03;;;;;;;18.52;3.53;;;3.50;99.90;;;;;;4932267;28;20039;-56
2022/03/19 02:04:29;;;;;;;18.77;4.05;;;3.50;99.90;;;;;;4935049;29;20091;-57
2022/03/19 02:06:55;;;;;;;14.80;3.30;;;3.60;99.90;;;;;;4932917;29;20067;-56
2022/03/19 02:09:23;;;;;;;17.55;4.03;;;3.50;99.90;;;;;;4931190;28;20048;-58
2022/03/19 02:11:49;;;;;;;24.65;4.03;;;3.50;99.90;;;;;;4934247;29;20182;-57
2022/03/19 02:14:15;;;;;;;16.33;3.25;;;3.50;99.90;;;;;;4929612;29;20556;-58
2022/03/19 02:16:41;;;;;;;19.65;4.30;;;3.50;99.90;;;;;;4930216;29;20097;-57
2022/03/19 02:19:07;;;;;;;16.95;3.13;;;3.50;99.90;;;;;;4930930;28;20055;-57
2022/03/19 02:21:47;;;;;;;15.35;3.95;;;3.50;99.90;;;;;;4934755;29;20544;-57
2022/03/19 02:26:59;;;;;;;15.20;4.00;;;3.60;99.90;;;;;;4928439;29;20102;-57
2022/03/19 02:29:25;;;;;;;21.85;3.75;;;3.50;99.90;;;;;;4934059;28;20597;-57
2022/03/19 02:31:54;;;;;;;15.57;3.95;;;3.40;99.90;;;;;;4934940;28;20051;-57
2022/03/19 02:34:21;;;;;;;15.57;3.63;;;3.40;99.90;;;;;;4929111;29;20113;-57
2022/03/19 02:36:47;;;;;;;17.77;3.50;;;3.40;99.90;;;;;;4935343;29;20052;-57
2022/03/19 02:39:18;;;;;;;17.73;3.50;;;3.40;99.90;;;;;;4934072;29;20122;-58
2022/03/19 02:41:46;;;;;;;13.43;3.42;;;3.40;99.90;;;;;;4939483;28;20051;-58
2022/03/19 02:44:13;;;;;;;21.48;4.07;;;3.40;99.90;;;;;;4936632;29;20044;-57
2022/03/19 02:46:49;;;;;;;17.17;3.67;;;3.40;99.90;;;;;;4935212;28;20047;-58
2022/03/19 02:49:17;;;;;;;20.58;4.60;;;3.40;99.90;;;;;;4933643;28;20058;-57
2022/03/19 02:51:44;;;;;;;16.23;3.65;;;3.40;99.90;;;;;;4933284;29;20051;-57
2022/03/19 02:54:13;;;;;;;20.50;4.47;;;3.30;99.90;;;;;;4933472;29;20125;-57
2022/03/19 02:56:41;;;;;;;18.30;3.83;;;3.30;99.90;;;;;;4933174;28;20162;-56
2022/03/19 02:59:23;;;;;;;16.75;3.72;;;3.30;99.90;;;;;;4934041;28;20044;-57
2022/03/19 03:02:00;;;;;;;22.08;3.60;;;3.30;99.90;;;;;;4934032;28;20078;-54
2022/03/19 03:04:28;;;;;;;14.48;3.83;;;3.30;99.90;;;;;;4935388;28;21031;-56
2022/03/19 03:06:56;;;;;;;15.75;3.60;;;3.40;99.90;;;;;;4934554;29;20115;-58
2022/03/19 03:09:24;;;;;;;15.50;3.85;;;3.20;99.90;;;;;;4931662;29;20075;-57
2022/03/19 03:11:51;;;;;;;16.15;3.83;;;3.30;99.90;;;;;;4937487;29;20051;-57
2022/03/19 03:14:20;;;;;;;17.00;3.80;;;3.20;99.90;;;;;;4937161;28;20061;-57
2022/03/19 03:16:52;;;;;;;15.35;4.13;;;3.20;99.90;;;;;;4937033;28;20105;-58
2022/03/19 03:19:19;;;;;;;15.77;3.88;;;3.20;99.90;;;;;;4932796;29;20055;-57
2022/03/19 03:21:47;;;;;;;17.75;4.70;;;3.20;99.90;;;;;;4934456;28;20086;-57
2022/03/19 03:24:13;;;;;;;19.02;4.03;;;3.20;99.90;;;;;;4937132;29;20051;-57
2022/03/19 03:26:40;;;;;;;15.43;3.95;;;3.20;99.90;;;;;;4933242;29;20131;-58
2022/03/19 03:29:06;;;;;;;19.05;4.40;;;3.20;99.90;;;;;;4933459;29;20467;-57
2022/03/19 03:31:33;;;;;;;15.73;3.88;;;3.10;99.90;;;;;;4935158;29;20058;-57
2022/03/19 03:33:59;;;;;;;18.42;4.10;;;3.10;99.90;;;;;;4930490;29;20439;-56
2022/03/19 03:36:25;;;;;;;17.88;4.30;;;3.10;99.90;;;;;;4934161;29;20107;-58
2022/03/19 03:38:51;;;;;;;12.75;4.38;;;3.10;99.90;;;;;;4935297;28;20457;-58
2022/03/19 03:41:17;;;;;;;15.95;4.22;;;3.10;99.90;;;;;;4934463;29;20055;-57
2022/03/19 03:43:45;;;;;;;14.85;4.03;;;3.10;99.90;;;;;;4931129;29;20046;-56
2022/03/19 03:46:11;;;;;;;17.20;4.70;;;3.10;99.90;;;;;;4936131;29;20051;-56
2022/03/19 03:48:37;;;;;;;17.90;4.47;;;3.10;99.90;;;;;;4932660;28;20056;-58
2022/03/19 03:51:06;;;;;;;14.23;4.47;;;3.10;99.90;;;;;;4932482;29;20048;-58
2022/03/19 03:53:33;;;;;;;21.73;5.57;;;3.10;99.90;;;;;;4935188;28;20834;-57
2022/03/19 03:55:59;;;;;;;19.17;5.20;;;3.10;99.90;;;;;;4935442;28;20051;-58
2022/03/19 03:58:25;;;;;;;16.63;4.85;;;3.10;99.90;;;;;;4931715;29;20055;-57
2022/03/19 04:00:52;;;;;;;13.05;4.75;;;3.10;99.90;;;;;;4935347;29;20048;-58
2022/03/19 04:03:18;;;;;;;18.95;5.20;;;3.10;99.90;;;;;;4929947;28;20047;-53
2022/03/19 04:05:44;;;;;;;21.23;5.55;;;3.10;99.90;;;;;;4935404;28;20046;-58
2022/03/19 04:08:10;;;;;;;20.02;5.57;;;3.10;99.90;;;;;;4931292;28;20394;-56
2022/03/19 04:10:36;;;;;;;21.17;5.30;;;3.10;99.90;;;;;;4934665;28;20486;-56
2022/03/19 04:13:02;;;;;;;17.23;4.78;;;3.00;99.90;;;;;;4936632;29;20055;-57
2022/03/19 04:15:28;;;;;;;15.38;4.78;;;3.00;99.90;;;;;;4930703;29;20122;-56
2022/03/19 04:17:55;;;;;;;17.17;4.90;;;3.00;99.90;;;;;;4933467;29;20103;-57
2022/03/19 04:20:24;;;;;;;15.23;4.15;;;2.90;99.90;;;;;;4933182;28;20114;-57
2022/03/19 04:22:51;;;;;;;13.85;4.55;;;3.00;99.90;;;;;;4933817;29;20043;-58
2022/03/19 04:25:19;;;;;;;15.60;4.80;;;3.00;99.90;;;;;;4930468;29;20494;-58
2022/03/19 04:27:47;;;;;;;17.67;5.13;;;2.90;99.90;;;;;;4936051;29;20047;-58
2022/03/19 04:30:16;;;;;;;17.00;5.22;;;2.90;99.90;;;;;;4931965;29;20043;-58
2022/03/19 04:32:47;;;;;;;17.50;5.25;;;2.90;99.90;;;;;;4936199;28;20117;-57
2022/03/19 04:38:04;;;;;;;25.70;5.82;;;2.90;99.90;;;;;;4932665;29;20051;-57
2022/03/19 04:40:30;;;;;;;21.88;6.20;;;2.90;99.90;;;;;;4937919;28;20133;-57
2022/03/19 04:42:57;;;;;;;24.25;6.00;;;2.90;99.90;;;;;;4935142;29;20054;-55
2022/03/19 04:45:23;;;;;;;21.27;6.20;;;2.90;99.90;;;;;;4934256;29;20055;-58
2022/03/19 04:47:49;;;;;;;22.25;6.13;;;2.90;99.90;;;;;;4935146;28;20557;-57
2022/03/19 04:50:16;;;;;;;27.40;6.32;;;2.90;99.90;;;;;;4934065;29;20494;-58
2022/03/19 04:52:42;;;;;;;22.50;6.55;;;2.90;99.90;;;;;;4933751;28;20102;-56
2022/03/19 04:55:09;;;;;;;17.20;6.63;;;2.90;99.90;;;;;;4931425;28;20091;-58
2022/03/19 04:57:38;;;;;;;25.58;6.50;;;2.90;99.90;;;;;;4934861;29;20058;-58
2022/03/19 05:00:06;;;;;;;25.15;6.97;;;2.90;99.90;;;;;;4934510;28;20194;-57
2022/03/19 05:02:33;;;;;;;24.20;6.80;;;2.90;99.90;;;;;;4934400;28;20043;-57
2022/03/19 05:05:00;;;;;;;22.00;6.25;;;2.90;99.90;;;;;;4934435;29;20051;-58
2022/03/19 05:07:27;;;;;;;27.38;7.20;;;2.90;99.90;;;;;;4933898;29;20047;-58
2022/03/19 05:12:42;;;;;;;22.75;7.75;;;2.90;99.90;;;;;;4938959;29;20059;-57
2022/03/19 05:15:11;;;;;;;25.25;7.57;;;3.00;99.90;;;;;;4933438;29;20098;-57
2022/03/19 05:17:38;;;;;;;29.02;9.05;;;3.00;99.90;;;;;;4931402;29;20525;-58
2022/03/19 05:20:04;;;;;;;26.55;8.50;;;3.00;99.90;;;;;;4934560;29;20503;-57
2022/03/19 05:22:30;;;;;;;25.08;8.75;;;3.10;99.90;;;;;;4935480;29;20051;-58
2022/03/19 05:24:57;;;;;;;27.90;9.23;;;3.10;99.90;;;;;;4928103;29;20502;-57
2022/03/19 05:27:24;;;;;;;23.10;8.27;;;3.10;99.90;;;;;;4932008;29;20047;-56
2022/03/19 05:29:50;;;;;;;29.65;9.40;;;3.20;99.90;;;;;;4930997;29;20036;-58
2022/03/19 05:32:17;;;;;;;28.10;10.25;;;3.20;99.90;;;;;;4935068;29;20816;-57
2022/03/19 05:34:43;;;;;;;27.95;9.23;;;3.20;99.90;;;;;;4945956;28;20486;-58
2022/03/19 05:37:09;;;;;;;24.73;9.10;;;3.30;99.90;;;;;;4934414;28;20098;-57
2022/03/19 05:39:36;;;;;;;29.33;9.38;;;3.30;99.90;;;;;;4933754;29;20054;-57
2022/03/19 05:42:02;;;;;;;23.77;9.68;;;3.30;99.90;;;;;;4934487;28;20047;-58
2022/03/19 05:44:28;;;;;;;23.85;9.75;;;3.30;99.90;;;;;;4931816;28;20051;-57
2022/03/19 05:46:57;;;;;;;27.63;10.07;;;3.30;99.90;;;;;;4933565;29;20067;-58
2022/03/19 05:49:23;;;;;;;26.98;10.23;;;3.40;99.90;;;;;;4935401;28;20455;-58
2022/03/19 05:51:49;;;;;;;21.73;9.32;;;3.30;99.90;;;;;;4932053;28;20055;-55
2022/03/19 05:54:15;;;;;;;27.95;10.40;;;3.30;99.90;;;;;;4932417;29;20099;-55
2022/03/19 05:56:40;;;;;;;24.33;9.43;;;3.30;99.90;;;;;;4933868;29;20051;-55
2022/03/19 05:59:06;;;;;;;26.95;10.23;;;3.30;99.90;;;;;;4935738;28;20131;-58
2022/03/19 06:01:32;;;;;;;25.63;10.63;;;3.30;99.90;;;;;;4934966;29;20055;-57
2022/03/19 06:03:59;;;;;;;31.50;10.07;;;3.20;99.90;;;;;;4936292;28;20046;-58
2022/03/19 06:06:26;;;;;;;24.88;11.40;;;3.30;99.90;;;;;;4939257;29;20505;-57
2022/03/19 06:08:52;;;;;;;34.25;11.50;;;3.30;99.90;;;;;;4935819;29;20043;-59
2022/03/19 06:11:18;;;;;;;27.25;12.07;;;3.30;99.90;;;;;;4937409;29;20055;-57
2022/03/19 06:13:44;;;;;;;28.23;11.20;;;3.40;99.90;;;;;;4938158;29;20774;-56
2022/03/19 06:16:11;;;;;;;25.83;10.88;;;3.40;99.90;;;;;;4937578;29;20089;-56
2022/03/19 06:18:37;;;;;;;24.92;10.52;;;3.40;99.90;;;;;;4931575;28;20166;-57
2022/03/19 06:21:03;;;;;;;28.83;10.85;;;3.40;99.90;;;;;;4937264;28;20122;-55
2022/03/19 06:23:29;;;;;;;34.42;12.35;;;3.50;99.90;;;;;;4938236;29;20035;-57
2022/03/19 06:25:55;;;;;;;27.05;10.70;;;3.50;99.90;;;;;;4937781;29;20097;-57
2022/03/19 06:28:21;;;;;;;25.95;10.40;;;3.50;99.90;;;;;;4933600;28;20058;-57
2022/03/19 06:30:48;;;;;;;24.90;9.85;;;3.50;99.90;;;;;;4938479;28;20061;-57
2022/03/19 06:33:14;;;;;;;23.25;9.82;;;3.60;99.90;;;;;;4913694;29;20518;-58
2022/03/19 06:38:29;;;;;;;25.85;10.07;;;3.60;99.90;;;;;;4933616;29;20075;-57
2022/03/19 06:40:55;;;;;;;27.88;9.38;;;3.50;99.90;;;;;;4940050;28;20060;-56
2022/03/19 06:43:21;;;;;;;24.85;9.05;;;3.60;99.90;;;;;;4930966;28;20508;-55
2022/03/19 06:45:47;;;;;;;25.73;8.90;;;3.60;99.90;;;;;;4926587;29;20431;-58
2022/03/19 06:48:13;;;;;;;26.00;9.75;;;3.60;99.90;;;;;;4934414;29;20566;-58
2022/03/19 06:50:39;;;;;;;26.60;9.30;;;3.70;99.90;;;;;;4937936;28;20090;-56
2022/03/19 06:53:05;;;;;;;24.77;8.73;;;3.70;99.90;;;;;;4930255;28;20051;-57
2022/03/19 06:55:35;;;;;;;20.67;8.80;;;3.80;99.90;;;;;;4938262;29;20055;-57
2022/03/19 06:58:00;;;;;;;22.70;8.63;;;3.90;99.90;;;;;;4929739;28;20051;-57
2022/03/19 07:00:27;;;;;;;25.60;9.25;;;3.90;99.90;;;;;;4938040;28;20047;-58
2022/03/19 07:02:55;;;;;;;22.73;9.35;;;4.00;99.90;;;;;;4936061;29;20379;-57
2022/03/19 07:05:25;;;;;;;22.15;8.75;;;4.00;99.90;;;;;;4936635;29;20086;-57
2022/03/19 07:07:53;;;;;;;21.52;7.78;;;4.10;99.90;;;;;;4935525;29;20051;-57
2022/03/19 07:10:20;;;;;;;23.35;8.32;;;4.10;99.90;;;;;;4938041;29;20380;-57
2022/03/19 07:12:47;;;;;;;22.95;7.53;;;4.20;99.90;;;;;;4938421;29;20068;-56
2022/03/19 07:15:14;;;;;;;18.38;8.02;;;4.20;99.90;;;;;;4937353;28;20055;-54
2022/03/19 07:17:40;;;;;;;26.25;7.80;;;4.30;99.90;;;;;;4936915;28;20518;-57
2022/03/19 07:20:07;;;;;;;19.33;7.40;;;4.40;99.90;;;;;;4936504;28;20086;-57
2022/03/19 07:22:52;;;;;;;20.27;7.88;;;4.40;99.90;;;;;;4935573;29;20056;-56
2022/03/19 07:25:21;;;;;;;22.70;8.60;;;4.60;99.90;;;;;;4939565;28;20043;-56
2022/03/19 07:27:49;;;;;;;20.10;7.63;;;4.60;99.90;;;;;;4938105;29;20212;-56
2022/03/19 07:30:15;;;;;;;19.30;7.05;;;4.70;99.90;;;;;;4935201;29;20059;-58
2022/03/19 07:32:41;;;;;;;17.73;7.22;;;4.70;99.90;;;;;;4935159;28;20059;-57
2022/03/19 07:35:09;;;;;;;25.10;7.55;;;4.70;99.90;;;;;;4935250;28;20058;-57
2022/03/19 07:37:35;;;;;;;20.08;7.05;;;4.80;99.90;;;;;;4938672;29;20119;-57
2022/03/19 07:40:01;;;;;;;21.80;7.85;;;4.90;99.90;;;;;;4937277;29;20055;-58
2022/03/19 07:42:27;;;;;;;24.13;8.10;;;5.00;99.90;;;;;;4938244;29;20047;-54
2022/03/19 07:44:53;;;;;;;23.00;6.53;;;5.00;99.90;;;;;;4936860;29;20668;-57
2022/03/19 07:47:19;;;;;;;20.05;7.10;;;5.10;99.90;;;;;;4931794;28;20048;-57
2022/03/19 07:49:45;;;;;;;20.35;6.97;;;5.20;99.90;;;;;;4940067;29;20055;-56
2022/03/19 07:52:11;;;;;;;19.00;6.32;;;5.30;99.90;;;;;;4937236;29;20156;-55
2022/03/19 07:54:37;;;;;;;18.92;6.35;;;5.40;99.90;;;;;;4934369;29;20169;-57
2022/03/19 07:57:04;;;;;;;23.40;7.00;;;5.50;99.90;;;;;;4938252;29;20043;-58
2022/03/19 07:59:30;;;;;;;20.20;5.93;;;5.50;99.90;;;;;;4934444;29;20043;-57
2022/03/19 08:01:56;;;;;;;22.10;6.28;;;5.70;99.90;;;;;;4935241;29;20047;-57
2022/03/19 08:04:22;;;;;;;19.85;6.18;;;5.80;99.90;;;;;;4937264;29;20942;-57
2022/03/19 08:06:55;;;;;;;18.75;5.25;;;5.90;99.90;;;;;;4936968;28;20035;-57
2022/03/19 08:09:24;;;;;;;25.63;6.20;;;6.00;99.90;;;;;;4935960;28;20048;-57
2022/03/19 08:11:51;;;;;;;18.20;6.28;;;6.20;99.90;;;;;;4935964;29;20047;-58
2022/03/19 08:14:19;;;;;;;18.77;5.78;;;6.30;99.90;;;;;;4932977;29;20059;-55
2022/03/19 08:16:47;;;;;;;21.58;5.72;;;6.50;99.90;;;;;;4935858;28;20090;-57
2022/03/19 08:19:13;;;;;;;17.25;5.45;;;6.60;99.90;;;;;;4935120;29;20058;-58
2022/03/19 08:21:46;;;;;;;20.67;5.82;;;6.80;99.90;;;;;;4934519;28;20490;-55
2022/03/19 08:24:12;;;;;;;20.38;5.93;;;6.90;99.90;;;;;;4933918;29;20434;-57
2022/03/19 08:26:39;;;;;;;18.55;5.57;;;7.00;99.90;;;;;;4937303;29;20098;-56
2022/03/19 08:29:06;;;;;;;21.15;5.53;;;7.10;99.90;;;;;;4935818;29;20779;-58
2022/03/19 08:31:33;;;;;;;16.10;5.45;;;7.20;99.90;;;;;;4935011;29;20457;-58
2022/03/19 08:33:59;;;;;;;19.98;5.50;;;7.40;99.90;;;;;;4935513;29;20050;-58
2022/03/19 08:36:25;;;;;;;17.52;5.80;;;7.50;99.90;;;;;;4935958;29;20475;-58
2022/03/19 08:41:35;;;;;;;18.33;5.50;;;7.70;99.90;;;;;;4934078;29;20142;-58
2022/03/19 08:44:02;;;;;;;18.30;5.22;;;7.80;99.90;;;;;;4935598;28;20055;-58
2022/03/19 08:46:28;;;;;;;19.88;5.25;;;7.90;99.90;;;;;;4937112;28;20398;-57
2022/03/19 08:48:54;;;;;;;14.93;4.82;;;8.10;99.90;;;;;;4934496;29;20501;-58
2022/03/19 08:54:05;;;;;;;19.67;4.65;;;8.30;99.90;;;;;;4935913;29;20079;-57
2022/03/19 08:56:32;;;;;;;16.33;4.13;;;8.30;99.90;;;;;;4930426;29;20043;-56
2022/03/19 08:58:59;;;;;;;14.10;4.15;;;8.40;99.90;;;;;;4933430;29;20043;-57
2022/03/19 09:01:25;;;;;;;13.63;4.45;;;8.50;99.90;;;;;;4932714;29;20422;-57
2022/03/19 09:03:51;;;;;;;15.27;3.97;;;8.60;99.90;;;;;;4932210;28;20043;-56
2022/03/19 09:06:17;;;;;;;19.05;4.55;;;8.70;99.90;;;;;;4931947;29;20728;-56
2022/03/19 09:08:47;;;;;;;13.20;3.83;;;8.80;99.90;;;;;;4933773;29;20039;-58
2022/03/19 09:11:13;;;;;;;17.38;4.50;;;8.90;99.90;;;;;;4933329;28;20051;-57
2022/03/19 09:13:40;;;;;;;12.98;3.50;;;9.00;99.90;;;;;;4933751;28;20042;-57
2022/03/19 09:16:06;;;;;;;17.17;3.95;;;9.20;99.90;;;;;;4940366;28;20047;-57
2022/03/19 09:18:33;;;;;;;18.70;3.95;;;9.20;99.50;;;;;;4933676;28;20416;-56
2022/03/19 09:20:59;;;;;;;14.40;4.05;;;9.30;99.10;;;;;;4933522;28;20410;-56
2022/03/19 09:23:25;;;;;;;14.93;3.53;;;9.40;98.50;;;;;;4931332;29;20052;-57
2022/03/19 09:25:51;;;;;;;12.68;3.45;;;9.50;98.30;;;;;;4932412;28;20051;-57
2022/03/19 09:28:17;;;;;;;13.20;3.72;;;9.60;97.80;;;;;;4930011;28;20047;-58
2022/03/19 09:30:43;;;;;;;13.38;3.75;;;9.70;97.30;;;;;;4934106;29;20175;-56
2022/03/19 09:33:09;;;;;;;15.52;3.55;;;9.80;96.60;;;;;;4931534;28;20779;-56
2022/03/19 09:35:35;;;;;;;13.27;3.42;;;9.90;96.20;;;;;;4949445;28;20047;-57
2022/03/19 09:38:02;;;;;;;14.75;3.97;;;10.00;95.50;;;;;;4935580;29;20410;-56
2022/03/19 09:40:28;;;;;;;14.10;3.88;;;10.00;94.30;;;;;;4936347;29;20051;-56
2022/03/19 09:42:57;;;;;;;19.45;4.07;;;10.10;93.40;;;;;;4938542;28;20383;-58
2022/03/19 09:45:24;;;;;;;15.95;3.58;;;10.10;92.80;;;;;;4938028;29;20039;-58
2022/03/19 09:47:51;;;;;;;12.70;4.03;;;10.20;93.20;;;;;;4935764;29;20055;-58
2022/03/19 09:50:17;;;;;;;16.98;4.00;;;10.30;93.00;;;;;;4937604;28;20051;-59
2022/03/19 09:52:44;;;;;;;16.40;3.78;;;10.50;92.40;;;;;;4938277;29;20478;-59
2022/03/19 09:55:15;;;;;;;12.02;4.30;;;10.50;92.00;;;;;;4940016;29;20085;-57
2022/03/19 09:57:41;;;;;;;14.07;3.60;;;10.60;91.60;;;;;;4938581;29;20051;-58
2022/03/19 10:00:08;;;;;;;16.40;4.47;;;10.70;91.50;;;;;;4937960;29;20090;-58
2022/03/19 10:02:33;;;;;;;14.50;3.90;;;10.80;91.00;;;;;;4937961;28;20134;-58
2022/03/19 10:08:35;;;;;;;15.73;3.63;;;10.80;89.80;;;;;;4933495;29;20110;-57
2022/03/19 10:10:36;;;;;;;11.18;3.58;;;10.90;89.10;;;;;;4939681;28;20051;-57
2022/03/19 10:13:09;;;;;;;14.05;3.60;;;11.00;89.70;;;;;;4934880;28;20044;-58
2022/03/19 10:15:43;;;;;;;17.13;4.65;;;11.10;87.80;;;;;;4936613;28;20171;-57
2022/03/19 10:18:09;;;;;;;18.05;4.15;;;11.30;86.60;;;;;;4936973;28;20063;-58
2022/03/19 10:20:36;;;;;;;14.35;3.75;;;11.30;86.00;;;;;;4935151;29;20474;-57
2022/03/19 10:23:03;;;;;;;12.57;4.38;;;11.30;84.50;;;;;;4934887;28;20077;-58
2022/03/19 10:25:29;;;;;;;13.52;3.97;;;11.40;83.80;;;;;;4937642;28;20055;-55
2022/03/19 10:28:09;;;;;;;11.05;3.78;;;11.40;82.60;;;;;;4940378;28;20788;-56
2022/03/19 10:30:37;;;;;;;16.10;4.70;;;11.50;83.70;;;;;;4939454;29;20118;-59
2022/03/19 10:33:03;;;;;;;11.02;3.50;;;11.60;82.40;;;;;;4935082;29;20044;-58
2022/03/19 10:35:30;;;;;;;13.77;3.95;;;11.60;81.20;;;;;;4935608;28;20497;-56
2022/03/19 10:37:57;;;;;;;13.82;3.70;;;11.70;80.80;;;;;;4933508;29;20047;-59
2022/03/19 10:40:42;;;;;;;17.15;3.72;;;11.70;79.50;;;;;;4934329;29;20055;-58
2022/03/19 10:43:09;;;;;;;11.32;3.35;;;11.80;78.40;;;;;;4935002;29;20196;-58
2022/03/19 10:45:44;;;;;;;9.55;3.20;;;11.90;78.20;;;;;;4935554;29;20044;-57
2022/03/19 10:48:12;;;;;;;13.13;3.30;;;12.00;78.40;;;;;;4933801;29;20541;-59
2022/03/19 10:50:41;;;;;;;8.95;3.33;;;12.20;79.00;;;;;;4933649;28;20049;-56
2022/03/19 10:53:07;;;;;;;11.43;3.60;;;12.30;77.00;;;;;;4934435;29;20054;-57
2022/03/19 10:55:34;;;;;;;10.75;3.10;;;12.30;75.90;;;;;;4932704;29;20047;-59
2022/03/19 10:58:00;;;;;;;11.43;3.60;;;12.40;75.30;;;;;;4934518;28;20071;-57
2022/03/19 11:00:25;;;;;;;14.60;3.47;;;12.40;74.00;;;;;;4934359;28;20195;-60
2022/03/19 11:02:54;;;;;;;10.07;2.78;;;12.50;73.30;;;;;;4933140;29;20145;-57
2022/03/19 11:05:21;;;;;;;9.15;2.47;;;12.60;72.00;;;;;;4934837;28;20055;-56
2022/03/19 11:07:49;;;;;;;7.43;2.40;;;12.60;71.40;;;;;;4934705;29;20123;-58
2022/03/19 11:10:18;;;;;;;6.95;2.22;;;12.70;71.30;;;;;;4935641;28;20055;-55
2022/03/19 11:12:50;;;;;;;7.85;2.63;;;12.80;69.80;;;;;;4934327;29;20050;-59
2022/03/19 11:15:19;;;;;;;10.13;2.72;;;13.00;69.40;;;;;;4919180;29;20047;-59
2022/03/19 11:17:49;;;;;;;10.85;3.22;;;13.10;68.10;;;;;;4936196;28;20155;-59
2022/03/19 11:20:15;;;;;;;9.30;2.30;;;13.00;67.60;;;;;;4936046;29;20105;-58
2022/03/19 11:22:46;;;;;;;12.38;2.95;;;13.10;66.70;;;;;;4931377;28;20039;-59
2022/03/19 11:25:19;;;;;;;8.55;2.08;;;13.10;66.10;;;;;;4932992;28;20075;-58
2022/03/19 11:27:48;;;;;;;10.30;2.58;;;13.20;65.70;;;;;;4948712;28;20050;-59
2022/03/19 11:30:26;;;;;;;7.60;2.58;;;13.30;65.60;;;;;;4935213;28;20060;-59
2022/03/19 11:33:05;;;;;;;10.07;2.92;;;13.30;64.00;;;;;;4930850;28;20075;-59
2022/03/19 11:35:33;;;;;;;12.15;3.00;;;13.20;63.40;;;;;;4934732;28;20051;-59
2022/03/19 11:38:15;;;;;;;10.05;2.58;;;13.30;64.20;;;;;;4935804;28;20051;-58
2022/03/19 11:40:46;;;;;;;8.13;2.30;;;13.30;64.60;;;;;;4936558;28;20093;-58
2022/03/19 11:43:28;;;;;;;5.05;2.30;;;13.40;65.30;;;;;;4931489;29;20043;-57
2022/03/19 11:45:58;;;;;;;6.40;2.33;;;13.60;64.80;;;;;;4932974;29;20092;-58
2022/03/19 11:48:38;;;;;;;7.35;2.30;;;13.80;65.40;;;;;;4933717;28;20051;-59
2022/03/19 11:51:18;;;;;;;5.18;2.13;;;13.80;64.10;;;;;;4931762;29;20458;-59
2022/03/19 11:54:12;;;;;;;5.65;2.13;;;13.90;60.60;;;;;;4927860;29;20047;-55
2022/03/19 11:56:41;;;;;;;4.75;1.60;;;13.90;60.00;;;;;;4935566;29;20078;-59
2022/03/19 11:59:15;;;;;;;3.22;1.45;;;14.00;60.90;;;;;;4934907;29;20051;-59
2022/03/19 12:02:00;;;;;;;5.78;2.00;;;14.00;59.70;;;;;;4948084;28;20086;-58
2022/03/19 12:04:47;;;;;;;6.90;2.28;;;14.10;60.10;;;;;;4932341;29;20529;-59
2022/03/19 12:07:39;;;;;;;5.65;2.00;;;14.20;61.00;;;;;;4947171;28;20125;-59
2022/03/19 12:10:17;;;;;;;7.72;2.30;;;14.30;61.40;;;;;;4936580;28;20432;-60
2022/03/19 12:12:44;;;;;;;5.63;1.90;;;14.40;61.60;;;;;;4935847;28;20067;-60
2022/03/19 12:15:31;;;;;;;5.93;2.03;;;14.40;60.40;;;;;;4932958;28;20474;-59
2022/03/19 12:18:27;;;;;;;5.82;2.00;;;14.50;60.60;;;;;;4934518;28;20789;-60
2022/03/19 12:21:01;;;;;;;5.70;2.15;;;14.60;60.20;;;;;;4935872;28;20059;-59
2022/03/19 12:23:27;;;;;;;7.80;2.60;;;14.70;60.90;;;;;;4933158;29;20051;-60
2022/03/19 12:26:14;;;;;;;5.63;1.95;;;14.70;60.50;;;;;;4936680;29;20058;-57
2022/03/19 12:28:40;;;;;;;5.95;1.65;;;14.80;60.60;;;;;;4936958;29;20131;-61
2022/03/19 12:31:08;;;;;;;3.08;1.45;;;15.00;59.10;;;;;;4935519;28;20047;-59
2022/03/19 12:33:35;;;;;;;5.38;1.85;;;15.10;58.70;;;;;;4934788;29;20086;-59
2022/03/19 12:36:12;;;;;;;4.07;1.80;;;15.20;58.50;;;;;;4933777;29;20055;-60
2022/03/19 12:38:38;;;;;;;6.53;1.70;;;15.30;58.80;;;;;;4933100;29;20103;-60
2022/03/19 12:43:48;;;;;;;3.17;1.50;;;15.50;57.20;;;;;;4933060;28;20043;-59
2022/03/19 12:46:25;;;;;;;3.85;1.30;;;15.50;55.40;;;;;;4935771;29;20058;-61
2022/03/19 12:49:00;;;;;;;15.00;2.55;;;15.50;56.30;;;;;;4938598;29;20448;-60
2022/03/19 12:51:27;;;;;;;3.90;1.90;;;15.50;54.70;;;;;;4936821;28;20533;-60
2022/03/19 12:53:53;;;;;;;5.35;1.88;;;15.40;53.90;;;;;;4934797;29;20040;-60
2022/03/19 12:56:24;;;;;;;5.47;1.80;;;15.40;54.30;;;;;;4937311;29;20061;-60
2022/03/19 12:58:58;;;;;;;5.97;2.00;;;15.50;55.00;;;;;;4933653;29;20040;-59
2022/03/19 13:01:29;;;;;;;5.97;1.40;;;15.70;54.10;;;;;;4935247;29;20047;-58
2022/03/19 13:04:01;;;;;;;6.55;1.50;;;15.80;52.80;;;;;;4934694;28;20051;-59
2022/03/19 13:06:36;;;;;;;6.07;1.42;;;15.90;51.70;;;;;;4930730;28;20050;-60
2022/03/19 13:09:04;;;;;;;4.65;1.58;;;15.90;51.30;;;;;;4941060;29;20486;-58
2022/03/19 13:11:44;;;;;;;6.00;1.70;;;16.00;51.40;;;;;;4936790;29;20035;-60
2022/03/19 13:14:19;;;;;;;4.43;1.73;;;16.10;51.70;;;;;;4934886;28;20561;-59